Pincher Creek Airport
CZPC : now visible

Airfield :











YOU CAN JOIN US ON...

 
LOGIN :

Register | Disclaimer

   EN    FR    IT 

 









Legend :    VFR   Marginal VFR   IFR   Intensive IFR   Very Intensive IFR
Visi :
Ceiling :
>= 8 km
>= 3000ft
5 to 8 km
1000 to 3000 ft
1500m to 5 km
500 to 1000 ft
800 to 1500m
200 to 500 ft
< 800m
< 200 ft
Symbols :   Thunderstorms  Fog  Heavy snow  Heavy precipitations  Wind > 20 kt






- Airport Elevation : 3903 ft


CZPC - Pincher Creek

CURRENT METAR :
  • 280400Z AUTO 25010KT 9SM BKN240 11/03 A3010 RMK SLP197 DENSITY ALT 4200FT

EXPIRED METARs :
  • 280300Z AUTO 28009KT 9SM BKN230 14/03 A3009 RMK SLP190 DENSITY ALT 4500FT
  • 280200Z AUTO 28013G19KT 9SM BKN230 17/03 A3008 RMK SLP186 DENSITY ALT 4800FT
  • 280100Z AUTO 25023KT 9SM CLR 17/02 A3006 RMK SLP182 DENSITY ALT 4900FT
  • 280000Z AUTO 27020G26KT 9SM CLR 18/02 A3007 RMK SLP185 DENSITY ALT 5000FT

TAF N/A
CZEG FIR / North America



MET'MAP, your aeronautical weather chart ! - Copyright ORBIFLY December 2007 - Disclaimer

ORBIFLY MET'MAP TEAM :

Programming & Development : Alexandra Zaïnal
Original concept : Baudouin d'Aumeries
Technical & hardware support : Manuel Goepfert
Assistance : Marc-Olivier Méhu




SOURCES & CREDITS :

   NOAA       Earth
Advisory